Time;durP1;ratioP1;P1;durP2;ratioP2;P2;SDS_P1;SDS_P2;PMS_P1;PMS_P2;Temp;Humidity;BMP_temperature;BMP_pressure;BME280_temperature;BME280_humidity;BME280_pressure;Samples;Min_cycle;Max_cycle;Signal;HPM_P1;HPM_P2
2021/08/19 00:01:06;;;;;;;8.20;5.00;;;;;;;16.84;82.25;98726.80;1870662;76;22519;-65
2021/08/19 00:03:42;;;;;;;9.53;4.95;;;;;;;16.83;81.85;98729.00;1854621;76;38619;-64
2021/08/19 00:06:18;;;;;;;7.40;4.28;;;;;;;16.88;81.61;98724.56;1854829;76;27885;-62
2021/08/19 00:08:53;;;;;;;7.35;4.40;;;;;;;16.89;80.73;98712.83;1854728;76;28324;-61
2021/08/19 00:11:29;;;;;;;8.23;4.87;;;;;;;16.90;80.66;98708.46;1870662;76;22612;-63
2021/08/19 00:14:05;;;;;;;8.45;4.60;;;;;;;16.86;80.86;98701.12;1870610;76;22101;-60
2021/08/19 00:16:40;;;;;;;8.35;4.60;;;;;;;16.77;81.32;98695.22;1870611;76;22131;-62
2021/08/19 00:19:21;;;;;;;6.25;4.55;;;;;;;16.66;82.04;98688.45;1869779;76;22156;-61
2021/08/19 00:21:56;;;;;;;7.67;4.35;;;;;;;16.56;82.25;98693.38;1890016;76;22258;-61
2021/08/19 00:24:32;;;;;;;7.83;5.20;;;;;;;16.49;82.78;98686.14;1870582;76;20097;-63
2021/08/19 00:27:28;;;;;;;8.45;5.92;;;;;;;16.45;82.94;98688.81;1870390;76;22151;-61
2021/08/19 00:30:04;;;;;;;12.00;5.12;;;;;;;16.39;83.64;98685.02;1870707;76;22153;-59
2021/08/19 00:32:46;;;;;;;10.60;5.12;;;;;;;16.33;84.14;98677.30;1869709;76;22145;-62
2021/08/19 00:35:20;;;;;;;7.72;4.78;;;;;;;16.28;83.99;98678.25;1870679;76;22574;-62
2021/08/19 00:37:56;;;;;;;11.05;5.47;;;;;;;16.24;83.91;98684.38;1889983;76;22155;-60
2021/08/19 00:40:33;;;;;;;7.62;5.03;;;;;;;16.22;83.85;98681.39;1870682;76;22544;-62
2021/08/19 00:43:09;;;;;;;7.42;4.87;;;;;;;16.22;83.67;98675.73;1870600;76;22105;-57
2021/08/19 00:45:43;;;;;;;12.03;5.17;;;;;;;16.18;83.68;98683.20;1870690;76;22109;-63
2021/08/19 00:48:40;;;;;;;6.62;4.35;;;;;;;16.13;83.63;98673.30;1870394;76;22189;-63
2021/08/19 00:51:15;;;;;;;7.42;5.20;;;;;;;16.13;84.09;98675.91;1854803;76;28322;-64
2021/08/19 00:53:50;;;;;;;9.98;4.85;;;;;;;16.17;84.48;98682.76;1870711;76;22517;-64
2021/08/19 00:56:45;;;;;;;10.23;5.10;;;;;;;16.14;84.85;98693.23;1870670;76;22109;-62
2021/08/19 00:59:23;;;;;;;8.65;4.92;;;;;;;16.09;84.62;98706.76;1854878;76;27924;-61
2021/08/19 01:02:00;;;;;;;7.35;4.55;;;;;;;16.11;85.07;98707.60;1834935;77;22192;-60
2021/08/19 01:04:38;;;;;;;8.45;4.50;;;;;;;16.06;85.26;98711.58;1870540;76;22180;-63
2021/08/19 01:07:16;;;;;;;5.30;4.05;;;;;;;16.01;84.80;98717.29;1890074;76;22104;-61
2021/08/19 01:10:10;;;;;;;8.50;4.00;;;;;;;15.97;85.10;98727.31;1854769;76;28382;-59
2021/08/19 01:12:46;;;;;;;7.05;4.47;;;;;;;16.04;84.72;98724.19;1873895;76;28098;-65
2021/08/19 01:15:21;;;;;;;6.97;4.05;;;;;;;16.12;84.22;98717.12;1854790;76;27910;-66
2021/08/19 01:18:01;;;;;;;7.47;4.30;;;;;;;16.17;84.00;98724.42;1870698;76;22101;-60
2021/08/19 01:21:01;;;;;;;7.55;3.70;;;;;;;16.14;84.11;98721.87;1889855;76;22177;-59
2021/08/19 01:23:38;;;;;;;6.00;3.70;;;;;;;16.07;83.64;98716.33;1870459;76;22132;-62
2021/08/19 01:26:17;;;;;;;7.22;4.08;;;;;;;16.02;84.06;98711.19;1870709;76;20094;-62
2021/08/19 01:28:55;;;;;;;5.87;4.00;;;;;;;15.96;84.19;98700.88;1870678;76;22145;-59
2021/08/19 01:31:29;;;;;;;7.92;4.70;;;;;;;15.94;84.79;98701.79;1870598;76;22164;-63
2021/08/19 01:34:29;;;;;;;8.60;3.83;;;;;;;15.90;84.74;98711.39;1869813;76;22162;-66
2021/08/19 01:37:05;;;;;;;7.55;3.87;;;;;;;15.89;84.79;98710.96;1873920;76;29368;-65
2021/08/19 01:39:40;;;;;;;9.23;4.30;;;;;;;15.95;84.83;98713.91;1854834;76;27922;-62
2021/08/19 01:42:16;;;;;;;6.67;3.95;;;;;;;16.03;84.63;98706.87;1854748;76;28383;-64
2021/08/19 01:44:51;;;;;;;7.20;3.80;;;;;;;16.06;84.80;98709.41;1854823;76;27913;-58
2021/08/19 01:47:26;;;;;;;6.67;3.40;;;;;;;16.08;85.07;98713.28;1870711;76;22563;-64
2021/08/19 01:50:00;;;;;;;8.88;4.78;;;;;;;15.87;85.85;98708.81;1870677;76;22137;-61
2021/08/19 01:52:35;;;;;;;6.50;3.52;;;;;;;15.91;85.75;98709.20;1870716;76;22101;-59
2021/08/19 01:55:11;;;;;;;9.38;4.30;;;;;;;15.87;85.87;98707.96;1889990;76;22145;-61
2021/08/19 01:57:45;;;;;;;5.78;4.10;;;;;;;15.81;85.97;98700.66;1890017;76;22127;-61
2021/08/19 02:00:21;;;;;;;8.08;4.42;;;;;;;15.80;85.89;98702.00;1854616;76;28332;-59
2021/08/19 02:02:56;;;;;;;7.20;4.17;;;;;;;15.83;86.01;98702.81;1870653;76;22126;-64
2021/08/19 02:05:31;;;;;;;8.65;4.40;;;;;;;15.82;86.23;98706.72;1870692;76;22105;-65
2021/08/19 02:08:26;;;;;;;9.18;4.53;;;;;;;15.78;86.65;98703.77;1854677;76;28317;-61
2021/08/19 02:11:01;;;;;;;11.53;4.60;;;;;;;15.81;86.87;98704.56;1870691;76;22562;-58
2021/08/19 02:13:38;;;;;;;8.35;4.22;;;;;;;15.82;86.81;98702.41;1870678;76;22536;-64
2021/08/19 02:16:13;;;;;;;9.40;4.53;;;;;;;15.78;87.03;98700.71;1889951;76;22150;-58
2021/08/19 02:18:48;;;;;;;7.80;4.37;;;;;;;15.74;87.07;98702.92;1870712;76;22152;-59
2021/08/19 02:21:23;;;;;;;9.80;3.98;;;;;;;15.72;87.21;98698.21;1870675;76;22113;-62
2021/08/19 02:23:58;;;;;;;9.50;4.83;;;;;;;15.60;86.90;98703.55;1870770;76;22539;-63
2021/08/19 02:26:33;;;;;;;7.40;4.47;;;;;;;15.67;87.19;98701.25;1870569;76;22144;-62
2021/08/19 02:29:08;;;;;;;11.57;4.30;;;;;;;15.63;86.99;98693.94;1870624;76;22105;-62
2021/08/19 02:31:43;;;;;;;8.75;4.60;;;;;;;15.61;86.59;98697.00;1870765;76;22143;-58
2021/08/19 02:34:19;;;;;;;7.35;4.37;;;;;;;15.63;86.42;98703.50;1889966;76;22550;-60
2021/08/19 02:37:13;;;;;;;7.33;4.70;;;;;;;15.64;86.34;98705.20;1869069;75;22193;-60
2021/08/19 02:39:48;;;;;;;10.40;4.53;;;;;;;15.65;86.46;98716.05;1870724;76;22137;-59
2021/08/19 02:42:23;;;;;;;15.25;4.22;;;;;;;15.66;86.70;98709.95;1889958;76;22523;-62
2021/08/19 02:45:05;;;;;;;7.05;4.33;;;;;;;15.66;85.85;98717.75;1869810;76;22230;-63
2021/08/19 02:48:00;;;;;;;6.15;3.95;;;;;;;15.70;85.69;98714.28;1889945;76;22180;-61
2021/08/19 02:50:54;;;;;;;6.60;4.35;;;;;;;15.73;85.31;98715.98;1889940;76;22143;-65
2021/08/19 02:53:29;;;;;;;8.10;4.83;;;;;;;15.74;85.45;98719.84;1870607;76;22105;-61
2021/08/19 02:56:04;;;;;;;8.55;4.80;;;;;;;15.74;85.25;98711.17;1870751;76;22145;-61
2021/08/19 02:58:39;;;;;;;6.55;4.42;;;;;;;15.76;85.28;98712.02;1854736;76;27933;-63
2021/08/19 03:01:14;;;;;;;6.80;4.10;;;;;;;15.82;84.72;98708.91;1889969;76;22172;-61
2021/08/19 03:03:48;;;;;;;7.22;4.03;;;;;;;15.86;83.19;98704.95;1870667;76;22129;-61
2021/08/19 03:06:23;;;;;;;6.30;3.50;;;;;;;15.89;82.76;98702.30;1870634;76;22105;-59
2021/08/19 03:09:06;;;;;;;7.90;3.47;;;;;;;15.90;82.44;98703.59;1889879;76;22638;-61
2021/08/19 03:11:40;;;;;;;7.58;3.17;;;;;;;15.94;82.62;98710.89;1870661;76;22531;-64
2021/08/19 03:14:17;;;;;;;5.85;3.77;;;;;;;15.98;82.23;98711.28;1870479;76;20184;-64
2021/08/19 03:16:52;;;;;;;7.10;3.72;;;;;;;16.04;82.34;98711.17;1870695;76;22109;-59
2021/08/19 03:19:28;;;;;;;10.18;4.33;;;;;;;16.09;82.00;98718.48;1870447;76;22575;-63
2021/08/19 03:22:04;;;;;;;5.80;3.40;;;;;;;16.14;81.96;98715.36;1870646;76;22519;-61
2021/08/19 03:24:41;;;;;;;6.40;3.60;;;;;;;16.18;82.01;98718.77;1889946;76;22570;-60
2021/08/19 03:27:15;;;;;;;6.78;3.72;;;;;;;16.24;81.99;98722.14;1870671;76;22105;-59
2021/08/19 03:29:51;;;;;;;7.97;4.50;;;;;;;16.31;81.96;98727.23;1854633;76;38201;-57
2021/08/19 03:32:27;;;;;;;5.62;3.40;;;;;;;16.41;82.00;98727.50;1834951;77;22497;-58
2021/08/19 03:35:02;;;;;;;8.20;4.22;;;;;;;16.46;82.15;98729.59;1870640;76;22101;-62
2021/08/19 03:37:40;;;;;;;8.15;3.90;;;;;;;16.49;82.13;98728.27;1870664;76;22211;-60
2021/08/19 03:40:33;;;;;;;7.08;4.37;;;;;;;16.54;82.14;98731.65;1870573;76;22627;-63
2021/08/19 03:43:08;;;;;;;7.55;4.25;;;;;;;16.59;82.33;98730.24;1889896;76;22566;-61
2021/08/19 03:45:43;;;;;;;8.05;3.90;;;;;;;16.60;82.42;98731.53;1870751;76;22105;-63
2021/08/19 03:48:19;;;;;;;8.38;4.55;;;;;;;16.63;82.18;98739.29;1854633;76;27913;-64
2021/08/19 03:50:59;;;;;;;7.58;4.17;;;;;;;16.70;82.63;98740.91;1870023;76;22114;-58
2021/08/19 03:53:37;;;;;;;12.65;6.03;;;;;;;16.71;82.82;98746.55;1890054;76;22115;-66
2021/08/19 03:56:11;;;;;;;9.78;5.33;;;;;;;16.69;83.50;98749.63;1870633;76;22157;-63
2021/08/19 03:59:07;;;;;;;6.97;4.37;;;;;;;16.67;83.98;98749.23;1889926;76;22140;-64
2021/08/19 04:01:49;;;;;;;7.40;4.25;;;;;;;16.63;83.66;98751.02;1889929;76;22156;-63
2021/08/19 04:04:24;;;;;;;10.65;5.15;;;;;;;16.44;84.29;98758.73;1870522;76;20101;-63
2021/08/19 04:07:00;;;;;;;8.05;5.15;;;;;;;16.48;84.67;98756.03;1870631;76;22128;-62
2021/08/19 04:09:40;;;;;;;10.23;5.45;;;;;;;16.40;85.12;98757.91;1889939;76;22251;-59
2021/08/19 04:12:16;;;;;;;8.95;5.40;;;;;;;16.29;85.63;98753.32;1854614;76;28349;-65
2021/08/19 04:14:51;;;;;;;9.43;5.33;;;;;;;16.22;85.31;98757.75;1870688;76;22109;-62
2021/08/19 04:17:27;;;;;;;8.93;5.70;;;;;;;16.20;85.46;98756.05;1870446;76;22551;-59
2021/08/19 04:20:04;;;;;;;12.10;6.40;;;;;;;16.20;85.60;98758.21;1870685;76;22127;-64
2021/08/19 04:22:38;;;;;;;8.93;5.55;;;;;;;16.22;85.62;98758.20;1889937;76;22547;-67
2021/08/19 04:25:32;;;;;;;11.08;6.22;;;;;;;16.21;85.66;98757.34;1870609;76;22148;-64
2021/08/19 04:28:07;;;;;;;12.18;6.85;;;;;;;16.20;85.86;98751.70;1889914;76;22112;-60
2021/08/19 04:30:42;;;;;;;11.08;5.90;;;;;;;16.26;85.95;98758.13;1870639;76;22144;-61
2021/08/19 04:33:16;;;;;;;10.30;6.15;;;;;;;16.36;86.07;98767.09;1889924;76;22112;-65
2021/08/19 04:35:52;;;;;;;10.20;6.40;;;;;;;16.45;85.79;98771.72;1870448;76;22132;-61
2021/08/19 04:38:27;;;;;;;15.05;6.05;;;;;;;16.51;85.75;98774.66;1870666;76;22101;-60
2021/08/19 04:41:02;;;;;;;10.72;7.05;;;;;;;16.54;85.60;98774.64;1870776;76;22128;-62
2021/08/19 04:43:38;;;;;;;8.50;5.40;;;;;;;16.54;85.82;98762.02;1889908;76;22100;-64
2021/08/19 04:46:32;;;;;;;10.72;5.92;;;;;;;16.47;85.36;98763.89;1870610;76;22113;-64
2021/08/19 04:49:07;;;;;;;10.48;5.92;;;;;;;16.50;85.33;98762.53;1889929;76;22132;-60
2021/08/19 04:52:01;;;;;;;12.58;6.37;;;;;;;16.57;85.22;98760.25;1889869;76;22120;-65
2021/08/19 04:54:35;;;;;;;8.03;5.55;;;;;;;16.72;85.30;98768.26;1870648;76;22140;-63
2021/08/19 04:57:10;;;;;;;9.65;5.95;;;;;;;16.90;85.31;98772.32;1870629;76;22141;-60
2021/08/19 04:59:45;;;;;;;18.52;5.75;;;;;;;17.02;84.76;98773.41;1870749;76;22194;-65
2021/08/19 05:02:20;;;;;;;8.83;5.60;;;;;;;17.17;84.25;98772.23;1870605;76;22120;-66
2021/08/19 05:04:55;;;;;;;9.08;5.55;;;;;;;17.20;82.95;98768.72;1870591;76;22153;-59
2021/08/19 05:07:30;;;;;;;9.40;5.05;;;;;;;17.21;82.60;98767.84;1870643;76;22117;-61
2021/08/19 05:10:07;;;;;;;9.20;5.42;;;;;;;17.16;82.62;98770.53;1870675;76;22129;-61
2021/08/19 05:12:42;;;;;;;9.95;5.90;;;;;;;17.18;82.62;98762.25;1870684;76;22560;-65
2021/08/19 05:15:36;;;;;;;8.88;5.33;;;;;;;17.30;82.44;98770.26;1870666;76;22563;-62
2021/08/19 05:18:11;;;;;;;10.65;5.05;;;;;;;17.35;82.32;98765.81;1855808;76;22646;-66
2021/08/19 05:20:47;;;;;;;7.55;4.70;;;;;;;17.41;80.51;98760.49;1881359;76;22176;-58
2021/08/19 05:23:22;;;;;;;7.05;4.87;;;;;;;17.42;80.68;98771.33;1870491;76;22137;-64
2021/08/19 05:25:57;;;;;;;8.38;5.12;;;;;;;17.45;79.92;98770.41;1846529;76;28013;-62
2021/08/19 05:28:33;;;;;;;9.40;5.20;;;;;;;17.51;79.60;98763.78;1888372;76;22234;-64
2021/08/19 05:31:09;;;;;;;12.50;5.83;;;;;;;17.51;79.20;98763.33;1873691;76;27943;-64
2021/08/19 05:33:48;;;;;;;10.25;6.50;;;;;;;17.56;78.85;98766.70;1889938;76;22595;-59
2021/08/19 05:36:43;;;;;;;10.10;6.12;;;;;;;17.58;78.47;98770.14;1870510;76;22136;-61
2021/08/19 05:39:36;;;;;;;8.43;6.55;;;;;;;17.62;78.62;98771.38;1870532;76;22137;-62
2021/08/19 05:42:11;;;;;;;11.03;5.25;;;;;;;17.63;78.33;98780.91;1870720;76;22153;-66
2021/08/19 05:44:46;;;;;;;10.18;5.90;;;;;;;17.61;77.79;98779.66;1870675;76;22140;-64
2021/08/19 05:47:40;;;;;;;9.28;6.50;;;;;;;17.66;76.87;98766.52;1870693;76;22141;-66
2021/08/19 05:50:16;;;;;;;12.20;7.12;;;;;;;17.72;77.18;98764.63;1854537;76;28350;-64
2021/08/19 05:52:50;;;;;;;8.35;5.92;;;;;;;17.78;77.22;98764.93;1889897;76;22147;-67
2021/08/19 05:55:25;;;;;;;10.45;7.10;;;;;;;17.86;77.10;98763.08;1889933;76;22104;-59
2021/08/19 05:58:00;;;;;;;11.85;6.50;;;;;;;18.05;77.15;98766.58;1870660;76;22587;-66
2021/08/19 06:00:35;;;;;;;11.55;6.72;;;;;;;18.27;77.22;98770.42;1889932;76;22186;-64
2021/08/19 06:03:12;;;;;;;12.30;7.33;;;;;;;18.48;76.57;98769.50;1889898;76;22160;-68
2021/08/19 06:05:48;;;;;;;12.47;6.60;;;;;;;18.71;76.15;98761.94;1870634;76;22109;-68
2021/08/19 06:08:42;;;;;;;10.75;6.97;;;;;;;18.91;74.73;98759.31;1854566;76;27944;-66
2021/08/19 06:11:17;;;;;;;13.45;7.37;;;;;;;19.14;74.10;98762.62;1870568;76;22149;-63
2021/08/19 06:14:12;;;;;;;10.15;6.17;;;;;;;19.18;71.53;98755.92;1876312;75;22203;-64
2021/08/19 06:16:46;;;;;;;9.98;6.28;;;;;;;19.08;71.91;98758.38;1870684;76;22105;-66
2021/08/19 06:19:42;;;;;;;9.33;6.85;;;;;;;18.97;72.27;98756.52;1870422;76;22152;-61
2021/08/19 06:22:16;;;;;;;10.25;7.00;;;;;;;18.89;72.72;98757.17;1889974;76;22163;-65
2021/08/19 06:24:51;;;;;;;9.58;6.62;;;;;;;18.87;73.17;98758.05;1889937;76;22104;-64
2021/08/19 06:27:26;;;;;;;11.65;6.17;;;;;;;18.93;73.46;98762.29;1870649;76;22523;-61
2021/08/19 06:30:02;;;;;;;8.88;5.30;;;;;;;19.04;73.57;98762.85;1889943;76;22143;-63
2021/08/19 06:32:37;;;;;;;9.33;5.22;;;;;;;19.19;72.65;98764.20;1870585;76;20351;-61
2021/08/19 06:35:12;;;;;;;8.38;4.28;;;;;;;19.43;72.04;98769.65;1889929;76;22554;-65
2021/08/19 06:38:05;;;;;;;10.48;5.10;;;;;;;19.73;69.63;98776.66;1870618;76;22568;-69
2021/08/19 06:40:42;;;;;;;10.15;5.55;;;;;;;19.85;68.78;98784.61;1873899;76;27897;-65
2021/08/19 06:43:37;;;;;;;9.83;5.47;;;;;;;20.04;68.50;98791.45;1854515;76;27939;-60
2021/08/19 06:46:36;;;;;;;10.15;5.35;;;;;;;20.30;67.71;98789.80;1889866;76;22245;-64
2021/08/19 06:49:11;;;;;;;11.38;5.17;;;;;;;20.39;67.54;98792.98;1889949;76;22190;-66
2021/08/19 06:52:06;;;;;;;8.10;5.12;;;;;;;20.68;66.92;98795.15;1870580;76;22148;-69
2021/08/19 06:54:41;;;;;;;12.60;6.20;;;;;;;21.11;66.00;98787.61;1854752;76;28336;-57
2021/08/19 06:57:35;;;;;;;8.10;5.25;;;;;;;21.57;64.58;98777.66;1870588;76;22543;-59
2021/08/19 07:00:18;;;;;;;7.70;5.85;;;;;;;21.83;62.75;98783.70;1869849;76;22169;-67
2021/08/19 07:03:16;;;;;;;10.68;5.58;;;;;;;21.99;61.68;98789.26;1870638;76;22105;-61
2021/08/19 07:05:50;;;;;;;9.08;5.05;;;;;;;22.03;61.24;98785.58;1870697;76;22136;-62
2021/08/19 07:08:50;;;;;;;9.43;5.53;;;;;;;22.13;60.67;98776.42;1869820;76;22161;-66
2021/08/19 07:11:26;;;;;;;8.10;5.08;;;;;;;22.02;60.51;98776.84;1834988;77;22574;-61
2021/08/19 07:14:00;;;;;;;9.70;5.58;;;;;;;21.94;60.99;98778.06;1870776;76;22140;-62
2021/08/19 07:16:37;;;;;;;8.55;5.00;;;;;;;21.88;60.25;98782.64;1890081;76;22108;-66
2021/08/19 07:19:33;;;;;;;8.78;5.17;;;;;;;21.73;59.49;98782.34;1870416;76;22140;-64
2021/08/19 07:22:09;;;;;;;13.75;5.92;;;;;;;21.57;60.46;98782.06;1873914;76;27917;-64
2021/08/19 07:24:46;;;;;;;7.95;5.03;;;;;;;21.51;60.73;98779.20;1870650;76;22547;-65
2021/08/19 07:27:21;;;;;;;9.75;6.25;;;;;;;21.41;61.35;98778.67;1889945;76;22166;-62
2021/08/19 07:30:17;;;;;;;16.23;5.75;;;;;;;21.40;61.91;98783.54;1889937;76;22124;-64
2021/08/19 07:32:52;;;;;;;8.95;5.00;;;;;;;21.46;61.85;98778.52;1870567;76;22144;-64
2021/08/19 07:35:49;;;;;;;12.47;5.90;;;;;;;21.51;61.38;98780.52;1870738;76;22140;-59
2021/08/19 07:38:23;;;;;;;10.18;5.55;;;;;;;21.63;61.24;98788.41;1870695;76;22136;-63
2021/08/19 07:41:17;;;;;;;10.63;6.10;;;;;;;21.72;61.05;98794.63;1870543;76;22255;-67
2021/08/19 07:43:53;;;;;;;10.55;6.72;;;;;;;21.84;60.29;98801.20;1854653;76;28066;-61
2021/08/19 07:46:29;;;;;;;9.08;6.28;;;;;;;22.00;59.40;98803.63;1870587;76;22113;-65
2021/08/19 07:49:04;;;;;;;12.00;6.60;;;;;;;22.01;59.54;98806.68;1854775;76;27941;-62
2021/08/19 07:51:39;;;;;;;9.68;5.15;;;;;;;22.03;59.79;98802.66;1889923;76;22250;-63
2021/08/19 07:54:13;;;;;;;10.93;5.65;;;;;;;22.13;59.63;98798.77;1889948;76;22139;-61
2021/08/19 07:56:48;;;;;;;10.05;5.37;;;;;;;22.09;59.84;98798.03;1889914;76;22144;-63
2021/08/19 07:59:42;;;;;;;12.33;5.80;;;;;;;22.10;60.66;98798.89;1870431;76;22180;-65
2021/08/19 08:02:24;;;;;;;9.95;6.08;;;;;;;22.38;59.85;98804.41;1834344;77;22168;-60
2021/08/19 08:04:59;;;;;;;7.67;4.78;;;;;;;22.71;59.01;98800.41;1870648;76;22564;-59
2021/08/19 08:07:55;;;;;;;8.28;5.28;;;;;;;22.98;58.55;98797.59;1889915;76;22120;-68
2021/08/19 08:10:31;;;;;;;7.97;5.42;;;;;;;23.12;57.44;98799.16;1870671;76;22157;-61
2021/08/19 08:13:07;;;;;;;9.75;5.28;;;;;;;23.12;57.47;98803.11;1870652;76;22120;-58
2021/08/19 08:15:42;;;;;;;8.23;5.35;;;;;;;23.11;56.51;98797.47;1870758;76;22120;-63
2021/08/19 08:18:19;;;;;;;9.05;5.08;;;;;;;22.91;55.61;98790.38;1870762;76;22178;-67
2021/08/19 08:21:14;;;;;;;11.43;6.00;;;;;;;22.85;55.30;98785.85;1874087;76;28442;-68
2021/08/19 08:24:08;;;;;;;10.63;5.65;;;;;;;22.76;56.34;98793.66;1889910;76;22104;-68
2021/08/19 08:26:44;;;;;;;7.50;4.97;;;;;;;22.94;56.35;98793.34;1870396;76;22478;-65
2021/08/19 08:29:20;;;;;;;7.37;4.78;;;;;;;23.29;55.90;98794.50;1870564;76;22539;-63
2021/08/19 08:31:57;;;;;;;8.53;5.42;;;;;;;23.89;54.32;98802.41;1889893;76;22155;-60
2021/08/19 08:34:53;;;;;;;9.65;4.90;;;;;;;24.71;52.75;98802.05;1870388;76;22250;-65
2021/08/19 08:37:29;;;;;;;8.83;4.72;;;;;;;25.84;50.94;98797.97;1870677;76;22568;-62
2021/08/19 08:40:06;;;;;;;8.73;4.97;;;;;;;27.12;45.09;98803.59;1870650;76;20201;-67
2021/08/19 08:43:00;;;;;;;8.45;5.05;;;;;;;27.91;43.70;98804.55;1889972;76;22108;-66
2021/08/19 08:45:37;;;;;;;8.63;5.17;;;;;;;28.49;40.48;98811.91;1870625;76;20215;-62
2021/08/19 08:48:35;;;;;;;10.05;5.33;;;;;;;28.32;41.55;98807.69;1870396;76;22185;-64
2021/08/19 08:51:11;;;;;;;11.33;5.30;;;;;;;28.17;41.17;98806.50;1870351;76;22143;-60
2021/08/19 08:53:47;;;;;;;8.70;5.53;;;;;;;27.79;41.75;98809.25;1854748;76;27911;-68
2021/08/19 08:56:40;;;;;;;11.78;4.85;;;;;;;27.76;41.29;98806.80;1889819;76;22259;-59
2021/08/19 08:59:34;;;;;;;9.05;4.90;;;;;;;28.06;40.87;98797.88;1870586;76;22248;-68
2021/08/19 09:02:28;;;;;;;8.80;5.25;;;;;;;27.85;41.21;98803.59;1870488;76;22477;-65
2021/08/19 09:05:24;;;;;;;9.08;4.97;;;;;;;27.34;41.14;98799.19;1889863;76;22073;-68
2021/08/19 09:08:01;;;;;;;8.43;4.60;;;;;;;26.50;42.65;98795.66;1870526;76;22079;-61
2021/08/19 09:10:35;;;;;;;6.92;4.72;;;;;;;25.72;43.81;98784.97;1870645;76;22758;-63
2021/08/19 09:13:30;;;;;;;8.35;5.03;;;;;;;24.67;45.07;98793.88;1870535;76;22647;-65
2021/08/19 09:16:16;;;;;;;9.80;5.53;;;;;;;24.01;47.50;98782.03;1889938;76;22160;-66
2021/08/19 09:19:20;;;;;;;8.15;5.45;;;;;;;23.55;49.21;98770.95;1869709;76;22192;-63
2021/08/19 09:22:07;;;;;;;11.12;5.65;;;;;;;23.28;49.67;98766.91;1870619;76;22516;-66
2021/08/19 09:24:42;;;;;;;11.22;5.72;;;;;;;23.06;50.50;98767.00;1889954;76;22123;-64
2021/08/19 09:27:18;;;;;;;11.55;6.08;;;;;;;22.98;51.04;98746.28;1854845;76;27887;-67
2021/08/19 09:30:12;;;;;;;8.63;4.72;;;;;;;22.93;51.20;98749.53;1889841;76;22236;-65
2021/08/19 09:32:48;;;;;;;8.03;4.95;;;;;;;23.01;51.14;98757.13;1890008;76;22590;-63
2021/08/19 09:35:24;;;;;;;15.05;6.12;;;;;;;23.14;50.38;98753.89;1889931;76;22108;-63
2021/08/19 09:38:21;;;;;;;12.50;5.62;;;;;;;23.24;50.57;98764.03;1889833;76;22151;-62
2021/08/19 09:41:13;;;;;;;10.88;5.05;;;;;;;23.24;49.90;98764.03;1870631;76;22105;-60
2021/08/19 09:44:06;;;;;;;7.40;5.10;;;;;;;23.04;50.13;98764.89;1889887;76;22156;-69
2021/08/19 09:47:03;;;;;;;9.78;4.70;;;;;;;22.95;50.19;98760.86;1870557;76;22140;-65
2021/08/19 09:49:37;;;;;;;7.97;5.22;;;;;;;22.96;49.82;98759.92;1890009;76;22155;-63
2021/08/19 09:52:31;;;;;;;7.15;4.78;;;;;;;22.80;49.58;98753.62;1889940;76;22192;-65
2021/08/19 09:55:30;;;;;;;9.78;6.42;;;;;;;22.60;49.32;98763.19;1870628;76;22125;-66
2021/08/19 09:58:07;;;;;;;8.80;5.50;;;;;;;22.61;50.04;98766.66;1870651;76;22105;-60
2021/08/19 10:01:01;;;;;;;9.30;5.05;;;;;;;22.78;50.13;98763.34;1889881;76;22112;-63
2021/08/19 10:03:56;;;;;;;9.53;5.35;;;;;;;22.98;50.00;98768.65;1870342;76;22137;-65
2021/08/19 10:06:31;;;;;;;8.60;5.80;;;;;;;23.18;49.70;98759.42;1889912;76;22164;-70
2021/08/19 10:09:26;;;;;;;7.58;4.90;;;;;;;23.27;49.94;98752.89;1870565;76;22121;-59
2021/08/19 10:12:01;;;;;;;9.00;5.50;;;;;;;23.28;49.38;98747.16;1870662;76;20094;-63
2021/08/19 10:14:37;;;;;;;8.93;5.37;;;;;;;23.30;49.13;98745.31;1854646;76;27915;-66
2021/08/19 10:17:12;;;;;;;8.40;4.90;;;;;;;23.08;47.39;98751.54;1870623;76;22207;-59
2021/08/19 10:19:50;;;;;;;8.23;5.12;;;;;;;22.94;48.18;98754.72;1889867;76;22112;-66
2021/08/19 10:22:25;;;;;;;9.03;5.60;;;;;;;22.91;48.06;98754.85;1870596;76;22600;-62
2021/08/19 10:25:01;;;;;;;8.85;5.45;;;;;;;22.93;48.50;98745.59;1854722;76;27906;-66
2021/08/19 10:28:19;;;;;;;9.35;5.47;;;;;;;23.04;48.66;98751.27;1870392;76;22587;-65
2021/08/19 10:31:00;;;;;;;7.35;5.05;;;;;;;23.22;49.19;98748.76;1889913;76;22112;-64
2021/08/19 10:33:42;;;;;;;8.00;5.33;;;;;;;23.61;48.58;98750.93;1870546;76;22161;-68
2021/08/19 10:36:31;;;;;;;8.35;5.65;;;;;;;23.75;48.06;98742.87;1870682;76;22559;-64
2021/08/19 10:39:25;;;;;;;8.05;4.95;;;;;;;23.71;48.37;98737.31;1890116;76;22173;-66
2021/08/19 10:42:28;;;;;;;8.55;5.22;;;;;;;23.74;48.11;98742.50;1883273;76;22248;-63
2021/08/19 10:45:33;;;;;;;8.30;4.70;;;;;;;23.59;47.03;98740.92;1889919;76;22127;-63
2021/08/19 10:48:23;;;;;;;7.95;4.53;;;;;;;23.25;47.65;98748.61;1889882;76;22108;-67
2021/08/19 10:51:10;;;;;;;8.25;4.60;;;;;;;23.15;48.32;98741.14;1869837;76;22160;-65
2021/08/19 10:54:10;;;;;;;6.95;4.65;;;;;;;23.29;47.94;98744.47;1870573;76;22117;-65
2021/08/19 11:00:13;;;;;;;7.58;4.40;;;;;;;23.73;46.57;98743.41;1869758;76;22169;-69
2021/08/19 11:03:38;;;;;;;7.72;4.70;;;;;;;23.93;46.72;98745.12;1869743;76;22144;-65
2021/08/19 11:06:24;;;;;;;7.87;4.95;;;;;;;24.25;47.30;98741.80;1870627;76;22161;-63
2021/08/19 11:09:12;;;;;;;6.35;4.15;;;;;;;24.43;45.71;98755.88;1890057;76;22152;-63
2021/08/19 11:11:54;;;;;;;7.28;4.20;;;;;;;24.51;45.00;98751.57;1889922;76;22191;-63
2021/08/19 11:14:57;;;;;;;8.13;4.45;;;;;;;24.60;44.61;98752.88;1870587;76;22129;-62
2021/08/19 11:17:55;;;;;;;8.35;4.55;;;;;;;24.69;44.60;98759.03;1870624;76;22574;-67
2021/08/19 11:20:49;;;;;;;6.05;3.75;;;;;;;24.77;43.28;98757.33;1889991;76;22124;-67
2021/08/19 11:23:49;;;;;;;8.75;4.40;;;;;;;24.43;43.54;98751.92;1889864;76;22164;-63
2021/08/19 11:26:30;;;;;;;8.75;4.42;;;;;;;24.19;44.02;98761.86;1869772;76;22161;-67
2021/08/19 11:29:05;;;;;;;7.17;4.75;;;;;;;24.14;44.35;98759.05;1870632;76;22121;-63
2021/08/19 11:31:39;;;;;;;6.85;4.60;;;;;;;24.29;43.88;98754.83;1889938;76;22108;-66
2021/08/19 11:34:14;;;;;;;8.55;4.53;;;;;;;24.32;43.81;98748.08;1870657;76;22139;-61
2021/08/19 11:36:55;;;;;;;8.13;4.20;;;;;;;24.21;44.33;98749.92;1869723;76;22127;-68
2021/08/19 11:39:30;;;;;;;9.43;4.97;;;;;;;24.16;44.54;98739.59;1870643;76;22120;-61
2021/08/19 11:42:06;;;;;;;7.75;4.37;;;;;;;24.14;44.95;98740.59;1889927;76;22136;-63
2021/08/19 11:44:41;;;;;;;8.83;4.30;;;;;;;24.20;44.96;98739.00;1889937;76;22119;-64
2021/08/19 11:47:20;;;;;;;8.50;4.80;;;;;;;24.25;44.87;98732.57;1889935;76;22218;-66
2021/08/19 11:50:15;;;;;;;8.25;5.10;;;;;;;24.09;45.16;98729.42;1870665;76;22156;-65
2021/08/19 11:53:08;;;;;;;9.33;4.12;;;;;;;23.99;45.24;98723.28;1870605;76;22586;-64
2021/08/19 11:55:51;;;;;;;8.38;4.67;;;;;;;23.98;45.36;98718.08;1869688;76;22148;-66
2021/08/19 11:58:28;;;;;;;8.00;4.70;;;;;;;24.07;45.51;98720.72;1870424;76;22140;-68
2021/08/19 12:01:09;;;;;;;9.75;5.00;;;;;;;24.12;45.72;98723.98;1854566;76;28340;-67
2021/08/19 12:03:45;;;;;;;6.90;4.40;;;;;;;24.19;45.13;98725.41;1890031;76;22128;-70
2021/08/19 12:07:01;;;;;;;6.85;4.47;;;;;;;24.13;45.37;98726.56;1887006;75;22207;-69
2021/08/19 12:09:41;;;;;;;8.13;4.85;;;;;;;24.03;45.54;98718.23;1870645;76;22599;-66
2021/08/19 12:12:41;;;;;;;7.90;4.87;;;;;;;23.99;45.61;98714.06;1889908;76;22109;-67
2021/08/19 12:15:16;;;;;;;9.58;4.95;;;;;;;24.08;45.95;98709.27;1873871;76;28053;-64
2021/08/19 12:18:06;;;;;;;9.93;5.25;;;;;;;24.24;46.28;98702.30;1854603;76;28333;-63
2021/08/19 12:20:41;;;;;;;9.15;5.35;;;;;;;24.25;46.33;98698.29;1870584;76;22156;-60
2021/08/19 12:23:36;;;;;;;9.45;4.97;;;;;;;24.31;46.36;98695.80;1870483;76;22139;-67
2021/08/19 12:26:15;;;;;;;6.80;4.28;;;;;;;24.53;45.56;98697.42;1870658;76;22547;-63
2021/08/19 12:28:57;;;;;;;6.45;4.30;;;;;;;24.53;45.19;98694.31;1870653;76;22101;-63
2021/08/19 12:31:52;;;;;;;8.85;5.10;;;;;;;24.42;45.10;98701.39;1870524;76;22167;-64
2021/08/19 12:35:00;;;;;;;7.62;4.40;;;;;;;24.60;44.85;98700.11;1889875;76;22595;-66
2021/08/19 12:37:58;;;;;;;7.22;4.53;;;;;;;24.63;44.44;98690.75;1870524;76;22165;-67
2021/08/19 12:40:35;;;;;;;8.55;4.92;;;;;;;24.83;44.95;98694.54;1870678;76;22133;-63
2021/08/19 12:43:11;;;;;;;12.88;5.05;;;;;;;25.15;45.00;98688.02;1890096;76;22171;-63